Airfield :
LOGIN :

Register | Disclaimer

   EN    FR    IT 

 










Legend :    VFR   Marginal VFR   IFR   Intensive IFR   Very Intensive IFR
Visi :
Ceiling :
>= 8 km
>= 3000ft
5 to 8 km
1000 to 3000 ft
1500m to 5 km
500 to 1000 ft
800 to 1500m
200 to 500 ft
< 800m
< 200 ft
Symbols :   Thunderstorms  Fog  Heavy snow  Heavy precipitations  Wind > 20 kt
SIGMETs :     Misc.  Thunderstorms  Icing  Turbulence  Mountain Waves  Volcanic Ashes







- Airport Elevation : 219 ft
- IATA code : DNR
- Download approach charts


LFRD - Dinard

CURRENT METAR :
  • 211500Z AUTO 01008KT 330V050 9999 SCT040 SCT046 23/14 Q1015 NOSIG

EXPIRED METARs :
  • 211430Z AUTO 02005KT 320V090 9999 SCT039 23/14 Q1015 TEMPO 4000 -SHRA
  • 211400Z AUTO 01006KT 310V060 9999 FEW039 23/14 Q1015 TEMPO 4000 -SHRA
  • 211330Z AUTO 36006KT 310V060 CAVOK 22/13 Q1015 TEMPO 4000 -SHRA
  • 211300Z AUTO 35009KT 320V030 9999 FEW045 BKN054 22/13 Q1015 TEMPO 4000 -SHRA
  • 211230Z AUTO 02009KT 340V040 CAVOK 22/13 Q1015 TEMPO 4000 -SHRA
  • 211200Z AUTO VRB03KT CAVOK 24/13 Q1015 TEMPO 4000 -SHRA

TAF TAF LFRD
Valid from the 21 at 12:00 until the 22 at 12:00 UTC


211100Z 2112/2212 01007KT CAVOK
PROB30
TEMPO 2112/2116 4000 -SHRA BKN025
BECMG 2120/2122 VRB03KT
TEMPO 2200/2207 3000 BR
PROB30
TEMPO 2202/2206 0500 BCFG
BECMG 2210/2212 35010KT
ATIS : +33 2 99 16 81 50
No reported NOTAMs for that airfield.



MET'MAP, your aeronautical weather chart ! - Copyright ORBIFLY December 2007 - Disclaimer

ORBIFLY MET'MAP TEAM :

Programming & Development : Alexandra Zaïnal
Concept & Development : Baudouin d'Aumeries
Co-Development & Prog : Marc-Olivier Méhu
Technical & hardware support : Manuel Goepfert

Contact : metmap@orbifly.com




SOURCES & CREDITS :

   NOAA